createdAt,value
2019-01-13T00:00:33.666Z,17.08
2019-01-13T00:01:38.413Z,17.09
2019-01-13T00:02:41.968Z,17.09
2019-01-13T00:03:45.545Z,17.08
2019-01-13T00:04:49.130Z,17.07
2019-01-13T00:05:52.619Z,17.07
2019-01-13T00:06:56.300Z,17.07
2019-01-13T00:07:59.780Z,17.06
2019-01-13T00:09:03.526Z,17.06
2019-01-13T00:10:07.839Z,17.06
2019-01-13T00:11:11.439Z,17.05
2019-01-13T00:12:14.921Z,17.06
2019-01-13T00:13:18.582Z,17.05
2019-01-13T00:14:22.053Z,17.04
2019-01-13T00:15:25.650Z,17.05
2019-01-13T00:16:29.226Z,17.05
2019-01-13T00:17:32.883Z,17.04
2019-01-13T00:18:36.521Z,17.03
2019-01-13T00:19:40.153Z,17.03
2019-01-13T00:20:43.657Z,17.02
2019-01-13T00:21:47.211Z,17.02
2019-01-13T00:22:50.804Z,17.01
2019-01-13T00:23:54.375Z,17.01
2019-01-13T00:24:57.855Z,17.02
2019-01-13T00:26:01.479Z,17.01
2019-01-13T00:27:05.153Z,17.00
2019-01-13T00:28:08.737Z,16.98
2019-01-13T00:29:12.248Z,17.01
2019-01-13T00:30:19.333Z,17.01
2019-01-13T00:31:23.222Z,17.00
2019-01-13T00:32:26.699Z,16.99
2019-01-13T00:33:30.282Z,16.99
2019-01-13T00:34:33.774Z,16.98
2019-01-13T00:35:37.274Z,17.00
2019-01-13T00:36:40.769Z,16.97
2019-01-13T00:37:44.349Z,16.99
2019-01-13T00:38:47.927Z,16.98
2019-01-13T00:39:51.490Z,16.98
2019-01-13T00:40:55.050Z,16.96
2019-01-13T00:41:58.695Z,16.97
2019-01-13T00:43:02.178Z,16.97
2019-01-13T00:44:05.943Z,16.97
2019-01-13T00:45:11.388Z,16.97
2019-01-13T00:46:14.945Z,16.96
2019-01-13T00:47:18.452Z,16.96
2019-01-13T00:48:22.011Z,16.95
2019-01-13T00:49:25.608Z,16.95
2019-01-13T00:50:29.166Z,16.96
2019-01-13T00:51:32.657Z,16.94
2019-01-13T00:52:36.139Z,16.94
2019-01-13T00:53:39.629Z,16.94
2019-01-13T00:54:43.149Z,16.94
2019-01-13T00:55:46.793Z,16.94
2019-01-13T00:56:50.369Z,16.92
2019-01-13T00:57:53.932Z,16.92
2019-01-13T00:58:57.413Z,16.93
2019-01-13T01:00:00.933Z,16.92
2019-01-13T01:01:04.877Z,16.92
2019-01-13T01:02:08.517Z,16.91
2019-01-13T01:03:12.153Z,16.92
2019-01-13T01:04:15.845Z,16.91
2019-01-13T01:05:19.770Z,16.89
2019-01-13T01:06:23.429Z,16.90
2019-01-13T01:07:27.058Z,16.91
2019-01-13T01:08:30.694Z,16.91
2019-01-13T01:09:34.498Z,16.91
2019-01-13T01:10:38.164Z,16.89
2019-01-13T01:11:41.802Z,16.90
2019-01-13T01:12:45.529Z,16.90
2019-01-13T01:13:49.090Z,16.89
2019-01-13T01:14:52.668Z,16.89
2019-01-13T01:15:56.270Z,16.89
2019-01-13T01:16:59.764Z,16.89
2019-01-13T01:18:03.321Z,16.89
2019-01-13T01:19:06.881Z,16.88
2019-01-13T01:20:15.370Z,16.89
2019-01-13T01:21:18.956Z,16.86
2019-01-13T01:22:22.519Z,16.88
2019-01-13T01:23:26.148Z,16.88
2019-01-13T01:24:29.647Z,16.88
2019-01-13T01:25:33.155Z,16.85
2019-01-13T01:26:36.664Z,16.86
2019-01-13T01:27:40.231Z,16.87
2019-01-13T01:28:44.460Z,16.87
2019-01-13T01:29:48.106Z,16.83
2019-01-13T01:30:51.679Z,16.85
2019-01-13T01:31:55.267Z,16.86
2019-01-13T01:32:58.974Z,16.86
2019-01-13T01:34:02.541Z,16.86
2019-01-13T01:35:06.767Z,16.85
2019-01-13T01:36:10.330Z,16.85
2019-01-13T01:37:13.845Z,16.85
2019-01-13T01:38:17.337Z,16.85
2019-01-13T01:39:20.897Z,16.85
2019-01-13T01:40:24.388Z,16.85
2019-01-13T01:41:28.015Z,16.83
2019-01-13T01:42:31.532Z,16.83
2019-01-13T01:43:35.025Z,16.83
2019-01-13T01:44:38.593Z,16.82
2019-01-13T01:45:42.093Z,16.82
2019-01-13T01:46:45.595Z,16.82
2019-01-13T01:47:49.265Z,16.83
2019-01-13T01:48:52.757Z,16.83
2019-01-13T01:49:56.335Z,16.82
2019-01-13T01:50:59.901Z,16.82
2019-01-13T01:52:03.642Z,16.81
2019-01-13T01:53:07.283Z,16.80
2019-01-13T01:54:10.785Z,16.81
2019-01-13T01:55:16.417Z,16.80
2019-01-13T01:56:20.061Z,16.81
2019-01-13T01:57:23.557Z,16.81
2019-01-13T01:58:27.069Z,16.81
2019-01-13T01:59:30.577Z,16.81
2019-01-13T02:00:40.484Z,16.80
2019-01-13T02:01:39.645Z,16.80
2019-01-13T02:02:43.505Z,16.79
2019-01-13T02:03:47.072Z,16.80
2019-01-13T02:04:50.592Z,16.78
2019-01-13T02:05:54.184Z,16.79
2019-01-13T02:06:57.745Z,16.79
2019-01-13T02:08:01.408Z,16.78
2019-01-13T02:09:07.396Z,16.78
2019-01-13T02:10:13.711Z,16.79
2019-01-13T02:11:17.292Z,16.78
2019-01-13T02:12:20.837Z,16.78
2019-01-13T02:13:24.345Z,16.79
2019-01-13T02:14:27.894Z,16.77
2019-01-13T02:15:31.516Z,16.77
2019-01-13T02:16:35.165Z,16.77
2019-01-13T02:17:38.635Z,16.77
2019-01-13T02:18:42.184Z,16.76
2019-01-13T02:19:45.886Z,16.77
2019-01-13T02:20:49.360Z,16.77
2019-01-13T02:21:52.947Z,16.74
2019-01-13T02:22:56.456Z,16.75
2019-01-13T02:23:59.968Z,16.75
2019-01-13T02:25:04.748Z,16.77
2019-01-13T02:26:08.234Z,16.76
2019-01-13T02:27:11.718Z,16.74
2019-01-13T02:28:15.230Z,16.74
2019-01-13T02:29:18.858Z,16.75
2019-01-13T02:30:26.598Z,16.74
2019-01-13T02:31:30.218Z,16.73
2019-01-13T02:32:33.698Z,16.73
2019-01-13T02:33:37.274Z,16.73
2019-01-13T02:34:40.752Z,16.72
2019-01-13T02:35:44.261Z,16.73
2019-01-13T02:36:47.766Z,16.73
2019-01-13T02:37:51.318Z,16.73
2019-01-13T02:38:54.810Z,16.73
2019-01-13T02:39:58.335Z,16.72
2019-01-13T02:41:01.907Z,16.73
2019-01-13T02:42:05.862Z,16.73
2019-01-13T02:43:09.369Z,16.72
2019-01-13T02:44:12.852Z,16.73
2019-01-13T02:45:21.986Z,16.72
2019-01-13T02:46:25.484Z,16.73
2019-01-13T02:47:29.062Z,16.72
2019-01-13T02:48:32.571Z,16.72
2019-01-13T02:49:36.115Z,16.71
2019-01-13T02:50:39.662Z,16.71
2019-01-13T02:51:43.289Z,16.71
2019-01-13T02:52:46.830Z,16.71
2019-01-13T02:53:50.330Z,16.72
2019-01-13T02:54:53.803Z,16.70
2019-01-13T02:55:57.345Z,16.71
2019-01-13T02:57:00.863Z,16.71
2019-01-13T02:58:04.478Z,16.71
2019-01-13T02:59:08.059Z,16.71
2019-01-13T03:00:22.735Z,16.71
2019-01-13T03:01:26.320Z,16.71
2019-01-13T03:02:29.893Z,16.71
2019-01-13T03:03:33.371Z,16.71
2019-01-13T03:04:36.889Z,16.69
2019-01-13T03:05:40.542Z,16.69
2019-01-13T03:06:44.123Z,16.70
2019-01-13T03:07:47.806Z,16.69
2019-01-13T03:08:51.353Z,16.72
2019-01-13T03:09:54.909Z,16.71
2019-01-13T03:10:58.864Z,16.71
2019-01-13T03:12:02.506Z,16.71
2019-01-13T03:13:06.083Z,16.71
2019-01-13T03:14:09.732Z,16.73
2019-01-13T03:15:19.360Z,16.75
2019-01-13T03:16:21.561Z,16.78
2019-01-13T03:17:25.070Z,16.79
2019-01-13T03:18:28.548Z,16.83
2019-01-13T03:19:32.054Z,16.85
2019-01-13T03:20:35.615Z,16.90
2019-01-13T03:21:39.127Z,16.94
2019-01-13T03:22:42.737Z,17.00
2019-01-13T03:23:46.230Z,17.04
2019-01-13T03:24:49.793Z,17.12
2019-01-13T03:25:53.275Z,17.21
2019-01-13T03:26:56.820Z,17.25
2019-01-13T03:28:00.378Z,17.33
2019-01-13T03:29:04.092Z,17.40
2019-01-13T03:30:13.487Z,17.44
2019-01-13T03:31:17.020Z,17.51
2019-01-13T03:32:20.565Z,17.59
2019-01-13T03:33:24.086Z,17.65
2019-01-13T03:34:27.551Z,17.72
2019-01-13T03:35:31.022Z,17.84
2019-01-13T03:36:34.518Z,17.89
2019-01-13T03:37:38.238Z,17.95
2019-01-13T03:38:41.767Z,18.05
2019-01-13T03:39:45.276Z,18.10
2019-01-13T03:40:48.742Z,18.14
2019-01-13T03:41:52.623Z,18.20
2019-01-13T03:42:56.445Z,18.26
2019-01-13T03:43:59.942Z,18.34
2019-01-13T03:45:04.068Z,18.38
2019-01-13T03:46:07.688Z,18.44
2019-01-13T03:47:11.281Z,18.52
2019-01-13T03:48:14.853Z,18.57
2019-01-13T03:49:18.351Z,18.62
2019-01-13T03:50:22.915Z,18.65
2019-01-13T03:51:26.452Z,18.68
2019-01-13T03:52:30.075Z,18.76
2019-01-13T03:53:33.652Z,18.82
2019-01-13T03:54:37.312Z,18.87
2019-01-13T03:55:40.817Z,18.92
2019-01-13T03:56:44.446Z,18.98
2019-01-13T03:57:47.982Z,19.03
2019-01-13T03:58:51.533Z,19.05
2019-01-13T03:59:55.022Z,19.08
2019-01-13T04:00:58.583Z,19.12
2019-01-13T04:02:02.141Z,19.17
2019-01-13T04:03:05.782Z,19.22
2019-01-13T04:04:09.434Z,19.22
2019-01-13T04:05:13.207Z,19.25
2019-01-13T04:06:16.696Z,19.27
2019-01-13T04:07:20.272Z,19.36
2019-01-13T04:08:23.808Z,19.39
2019-01-13T04:09:27.274Z,19.42
2019-01-13T04:10:30.933Z,19.42
2019-01-13T04:11:34.479Z,19.45
2019-01-13T04:12:38.120Z,19.48
2019-01-13T04:13:41.626Z,19.56
2019-01-13T04:14:45.174Z,19.57
2019-01-13T04:15:48.865Z,19.59
2019-01-13T04:16:52.696Z,19.66
2019-01-13T04:17:57.523Z,19.73
2019-01-13T04:19:01.018Z,19.76
2019-01-13T04:20:05.847Z,19.76
2019-01-13T04:21:09.443Z,19.81
2019-01-13T04:22:12.998Z,19.82
2019-01-13T04:23:16.559Z,19.84
2019-01-13T04:24:20.140Z,19.87
2019-01-13T04:25:23.639Z,19.88
2019-01-13T04:26:27.232Z,19.91
2019-01-13T04:27:30.720Z,19.92
2019-01-13T04:28:34.211Z,19.96
2019-01-13T04:29:37.704Z,19.95
2019-01-13T04:30:41.216Z,19.99
2019-01-13T04:31:44.745Z,20.01
2019-01-13T04:32:48.245Z,20.06
2019-01-13T04:33:51.752Z,20.07
2019-01-13T04:34:55.390Z,20.07
2019-01-13T04:35:59.030Z,20.07
2019-01-13T04:37:02.542Z,20.10
2019-01-13T04:38:06.223Z,20.08
2019-01-13T04:39:09.722Z,20.05
2019-01-13T04:40:13.284Z,20.05
2019-01-13T04:41:16.779Z,20.06
2019-01-13T04:42:20.308Z,20.08
2019-01-13T04:43:23.872Z,20.06
2019-01-13T04:44:27.391Z,20.08
2019-01-13T04:45:30.956Z,20.11
2019-01-13T04:46:34.520Z,20.14
2019-01-13T04:47:38.046Z,20.17
2019-01-13T04:48:41.542Z,20.18
2019-01-13T04:49:45.030Z,20.16
2019-01-13T04:50:48.517Z,20.19
2019-01-13T04:51:52.007Z,20.18
2019-01-13T04:52:55.514Z,20.21
2019-01-13T04:53:59.011Z,20.20
2019-01-13T04:55:02.646Z,20.22
2019-01-13T04:56:06.289Z,20.28
2019-01-13T04:57:09.831Z,20.26
2019-01-13T04:58:13.353Z,20.29
2019-01-13T04:59:16.905Z,20.30
2019-01-13T05:00:22.499Z,20.28
2019-01-13T05:01:26.063Z,20.30
2019-01-13T05:02:29.556Z,20.33
2019-01-13T05:03:33.096Z,20.35
2019-01-13T05:04:36.658Z,20.32
2019-01-13T05:05:40.145Z,20.38
2019-01-13T05:06:43.650Z,20.41
2019-01-13T05:07:47.137Z,20.43
2019-01-13T05:08:50.790Z,20.43
2019-01-13T05:09:54.286Z,20.44
2019-01-13T05:10:57.832Z,20.45
2019-01-13T05:12:01.325Z,20.48
2019-01-13T05:13:04.948Z,20.51
2019-01-13T05:14:08.460Z,20.54
2019-01-13T05:15:12.304Z,20.57
2019-01-13T05:16:15.806Z,20.54
2019-01-13T05:17:19.282Z,20.52
2019-01-13T05:18:22.782Z,20.51
2019-01-13T05:19:26.355Z,20.48
2019-01-13T05:20:29.858Z,20.45
2019-01-13T05:21:33.415Z,20.40
2019-01-13T05:22:36.972Z,20.37
2019-01-13T05:23:40.463Z,20.34
2019-01-13T05:24:43.982Z,20.31
2019-01-13T05:25:47.475Z,20.30
2019-01-13T05:26:51.015Z,20.29
2019-01-13T05:27:54.504Z,20.31
2019-01-13T05:28:58.023Z,20.28
2019-01-13T05:30:01.508Z,20.29
2019-01-13T05:31:05.143Z,20.24
2019-01-13T05:32:09.105Z,20.29
2019-01-13T05:33:12.650Z,20.32
2019-01-13T05:34:16.165Z,20.34
2019-01-13T05:35:19.932Z,20.36
2019-01-13T05:36:23.478Z,20.37
2019-01-13T05:37:26.959Z,20.40
2019-01-13T05:38:30.559Z,20.41
2019-01-13T05:39:34.081Z,20.43
2019-01-13T05:40:37.647Z,20.44
2019-01-13T05:41:41.278Z,20.40
2019-01-13T05:42:45.015Z,20.43
2019-01-13T05:43:48.560Z,20.46
2019-01-13T05:44:52.091Z,20.47
2019-01-13T05:45:55.587Z,20.49
2019-01-13T05:46:59.084Z,20.54
2019-01-13T05:48:02.590Z,20.54
2019-01-13T05:49:06.145Z,20.60
2019-01-13T05:50:12.299Z,20.61
2019-01-13T05:51:15.868Z,20.58
2019-01-13T05:52:19.355Z,20.61
2019-01-13T05:53:22.907Z,20.58
2019-01-13T05:54:26.391Z,20.57
2019-01-13T05:55:30.068Z,20.57
2019-01-13T05:56:33.559Z,20.55
2019-01-13T05:57:37.041Z,20.54
2019-01-13T05:58:40.536Z,20.53
2019-01-13T05:59:44.027Z,20.49
2019-01-13T06:00:47.610Z,20.45
2019-01-13T06:01:51.184Z,20.43
2019-01-13T06:02:54.731Z,20.40
2019-01-13T06:03:58.216Z,20.38
2019-01-13T06:05:01.777Z,20.36
2019-01-13T06:06:05.428Z,20.34
2019-01-13T06:07:08.990Z,20.33
2019-01-13T06:08:12.613Z,20.35
2019-01-13T06:09:16.170Z,20.40
2019-01-13T06:10:20.705Z,20.40
2019-01-13T06:11:24.216Z,20.42
2019-01-13T06:12:27.718Z,20.44
2019-01-13T06:13:31.289Z,20.43
2019-01-13T06:14:34.769Z,20.47
2019-01-13T06:15:38.397Z,20.48
2019-01-13T06:16:41.912Z,20.51
2019-01-13T06:17:45.563Z,20.52
2019-01-13T06:18:49.057Z,20.53
2019-01-13T06:19:52.609Z,20.55
2019-01-13T06:20:56.103Z,20.54
2019-01-13T06:21:59.606Z,20.56
2019-01-13T06:23:03.168Z,20.56
2019-01-13T06:24:06.653Z,20.55
2019-01-13T06:25:10.395Z,20.54
2019-01-13T06:26:13.895Z,20.50
2019-01-13T06:27:17.490Z,20.49
2019-01-13T06:28:20.980Z,20.43
2019-01-13T06:29:24.477Z,20.41
2019-01-13T06:30:27.971Z,20.39
2019-01-13T06:31:31.447Z,20.35
2019-01-13T06:32:35.051Z,20.35
2019-01-13T06:33:38.553Z,20.36
2019-01-13T06:34:42.032Z,20.35
2019-01-13T06:35:45.610Z,20.37
2019-01-13T06:36:49.244Z,20.36
2019-01-13T06:37:52.782Z,20.34
2019-01-13T06:38:56.357Z,20.35
2019-01-13T06:39:59.837Z,20.41
2019-01-13T06:42:06.007Z,20.48
2019-01-13T06:43:09.616Z,20.48
2019-01-13T06:44:13.144Z,20.53
2019-01-13T06:45:19.061Z,20.52
2019-01-13T06:46:22.575Z,20.51
2019-01-13T06:47:26.096Z,20.51
2019-01-13T06:48:29.579Z,20.49
2019-01-13T06:49:33.175Z,20.50
2019-01-13T06:50:36.648Z,20.47
2019-01-13T06:51:40.226Z,20.44
2019-01-13T06:52:44.099Z,20.43
2019-01-13T06:53:47.711Z,20.40
2019-01-13T06:54:51.220Z,20.38
2019-01-13T06:55:54.722Z,20.35
2019-01-13T06:56:58.405Z,20.35
2019-01-13T06:58:01.912Z,20.31
2019-01-13T06:59:05.629Z,20.28
2019-01-13T07:00:14.952Z,20.30
2019-01-13T07:01:18.462Z,20.31
2019-01-13T07:02:22.033Z,20.31
2019-01-13T07:03:25.552Z,20.32
2019-01-13T07:04:29.054Z,20.34
2019-01-13T07:05:32.603Z,20.34
2019-01-13T07:06:36.106Z,20.38
2019-01-13T07:07:39.613Z,20.40
2019-01-13T07:08:43.085Z,20.41
2019-01-13T07:09:46.595Z,20.43
2019-01-13T07:10:50.188Z,20.41
2019-01-13T07:11:53.856Z,20.45
2019-01-13T07:12:57.470Z,20.47
2019-01-13T07:14:00.939Z,20.47
2019-01-13T07:15:07.284Z,20.46
2019-01-13T07:16:10.903Z,20.44
2019-01-13T07:17:14.517Z,20.41
2019-01-13T07:18:18.053Z,20.39
2019-01-13T07:19:21.526Z,20.35
2019-01-13T07:20:25.106Z,20.31
2019-01-13T07:21:28.614Z,20.32
2019-01-13T07:22:32.089Z,20.31
2019-01-13T07:23:35.689Z,20.28
2019-01-13T07:24:39.173Z,20.27
2019-01-13T07:25:42.647Z,20.27
2019-01-13T07:26:46.237Z,20.28
2019-01-13T07:27:49.783Z,20.29
2019-01-13T07:28:53.322Z,20.30
2019-01-13T07:29:56.811Z,20.32
2019-01-13T07:31:00.375Z,20.34
2019-01-13T07:32:10.634Z,20.34
2019-01-13T07:33:09.124Z,20.39
2019-01-13T07:34:12.701Z,20.38
2019-01-13T07:35:16.287Z,20.37
2019-01-13T07:36:19.752Z,20.35
2019-01-13T07:37:23.337Z,20.34
2019-01-13T07:38:26.855Z,20.34
2019-01-13T07:39:30.422Z,20.33
2019-01-13T07:40:33.935Z,20.31
2019-01-13T07:41:37.417Z,20.29
2019-01-13T07:42:40.900Z,20.27
2019-01-13T07:43:44.405Z,20.27
2019-01-13T07:44:47.927Z,20.24
2019-01-13T07:45:51.489Z,20.21
2019-01-13T07:46:54.988Z,20.22
2019-01-13T07:47:58.562Z,20.20
2019-01-13T07:49:02.056Z,20.23
2019-01-13T07:50:09.185Z,20.21
2019-01-13T07:51:12.725Z,20.25
2019-01-13T07:52:16.228Z,20.28
2019-01-13T07:53:19.840Z,20.32
2019-01-13T07:54:23.342Z,20.34
2019-01-13T07:55:26.983Z,20.34
2019-01-13T07:56:30.487Z,20.35
2019-01-13T07:57:33.967Z,20.34
2019-01-13T07:58:37.440Z,20.33
2019-01-13T07:59:40.927Z,20.33
2019-01-13T08:00:46.385Z,20.29
2019-01-13T08:01:49.883Z,20.31
2019-01-13T08:02:53.442Z,20.30
2019-01-13T08:03:57.122Z,20.29
2019-01-13T08:05:00.638Z,20.27
2019-01-13T08:06:04.289Z,20.24
2019-01-13T08:07:07.904Z,20.24
2019-01-13T08:08:11.529Z,20.22
2019-01-13T08:09:15.008Z,20.23
2019-01-13T08:10:18.747Z,20.22
2019-01-13T08:11:22.275Z,20.23
2019-01-13T08:12:25.769Z,20.23
2019-01-13T08:13:29.323Z,20.28
2019-01-13T08:14:32.900Z,20.32
2019-01-13T08:15:36.678Z,20.32
2019-01-13T08:16:40.211Z,20.32
2019-01-13T08:17:44.657Z,20.32
2019-01-13T08:18:48.151Z,20.31
2019-01-13T08:19:52.017Z,20.32
2019-01-13T08:20:55.525Z,20.30
2019-01-13T08:21:59.096Z,20.30
2019-01-13T08:23:02.698Z,20.28
2019-01-13T08:24:06.321Z,20.25
2019-01-13T08:25:10.057Z,20.23
2019-01-13T08:26:13.628Z,20.22
2019-01-13T08:27:17.112Z,20.22
2019-01-13T08:28:20.609Z,20.19
2019-01-13T08:29:24.097Z,20.17
2019-01-13T08:30:27.716Z,20.19
2019-01-13T08:31:31.239Z,20.17
2019-01-13T08:32:34.794Z,20.18
2019-01-13T08:33:38.283Z,20.19
2019-01-13T08:34:41.788Z,20.21
2019-01-13T08:35:45.342Z,20.21
2019-01-13T08:36:48.862Z,20.25
2019-01-13T08:37:52.490Z,20.28
2019-01-13T08:38:56.047Z,20.25
2019-01-13T08:39:59.538Z,20.28
2019-01-13T08:41:03.075Z,20.24
2019-01-13T08:42:06.802Z,20.24
2019-01-13T08:43:10.448Z,20.22
2019-01-13T08:44:13.939Z,20.23
2019-01-13T08:45:17.874Z,20.20
2019-01-13T08:46:21.436Z,20.19
2019-01-13T08:47:24.949Z,20.17
2019-01-13T08:48:28.446Z,20.13
2019-01-13T08:49:31.913Z,20.12
2019-01-13T08:50:35.459Z,20.09
2019-01-13T08:51:38.965Z,20.06
2019-01-13T08:52:42.718Z,20.06
2019-01-13T08:53:46.293Z,20.05
2019-01-13T08:54:49.862Z,20.03
2019-01-13T08:55:53.772Z,20.04
2019-01-13T08:56:57.276Z,20.03
2019-01-13T08:58:00.916Z,20.02
2019-01-13T08:59:04.537Z,19.99
2019-01-13T09:00:19.532Z,20.00
2019-01-13T09:01:23.009Z,19.97
2019-01-13T09:02:32.171Z,19.94
2019-01-13T09:03:31.825Z,19.92
2019-01-13T09:04:35.369Z,19.89
2019-01-13T09:05:38.949Z,19.87
2019-01-13T09:06:42.485Z,19.87
2019-01-13T09:07:46.036Z,19.87
2019-01-13T09:08:49.672Z,19.88
2019-01-13T09:09:53.210Z,19.87
2019-01-13T09:10:56.789Z,19.92
2019-01-13T09:12:00.289Z,19.93
2019-01-13T09:13:03.908Z,19.94
2019-01-13T09:14:07.456Z,19.98
2019-01-13T09:15:16.513Z,19.98
2019-01-13T09:16:20.062Z,20.03
2019-01-13T09:17:23.579Z,20.04
2019-01-13T09:18:27.058Z,20.07
2019-01-13T09:19:30.587Z,20.09
2019-01-13T09:20:34.108Z,20.13
2019-01-13T09:21:37.650Z,20.14
2019-01-13T09:22:41.156Z,20.18
2019-01-13T09:23:44.689Z,20.15
2019-01-13T09:24:48.198Z,20.17
2019-01-13T09:25:51.703Z,20.17
2019-01-13T09:26:55.171Z,20.18
2019-01-13T09:27:58.675Z,20.17
2019-01-13T09:29:02.179Z,20.19
2019-01-13T09:30:08.719Z,20.18
2019-01-13T09:31:12.292Z,20.13
2019-01-13T09:32:15.776Z,20.13
2019-01-13T09:33:19.255Z,20.12
2019-01-13T09:34:22.820Z,20.13
2019-01-13T09:35:27.069Z,20.13
2019-01-13T09:36:30.695Z,20.14
2019-01-13T09:37:34.267Z,20.14
2019-01-13T09:38:38.035Z,20.16
2019-01-13T09:39:41.932Z,20.18
2019-01-13T09:40:47.059Z,20.17
2019-01-13T09:41:50.785Z,20.14
2019-01-13T09:42:54.734Z,20.15
2019-01-13T09:43:58.207Z,20.13
2019-01-13T09:45:01.724Z,20.10
2019-01-13T09:46:05.469Z,20.14
2019-01-13T09:47:09.016Z,20.11
2019-01-13T09:48:12.587Z,20.10
2019-01-13T09:49:16.125Z,20.07
2019-01-13T09:50:22.008Z,20.05
2019-01-13T09:51:25.608Z,20.04
2019-01-13T09:52:29.154Z,20.07
2019-01-13T09:53:32.653Z,20.04
2019-01-13T09:54:36.174Z,20.05
2019-01-13T09:55:39.641Z,20.06
2019-01-13T09:56:43.280Z,20.09
2019-01-13T09:57:47.050Z,20.12
2019-01-13T09:58:50.545Z,20.12
2019-01-13T09:59:54.016Z,20.13
2019-01-13T10:00:57.662Z,20.14
2019-01-13T10:02:01.168Z,20.14
2019-01-13T10:03:04.792Z,20.13
2019-01-13T10:04:08.460Z,20.15
2019-01-13T10:05:12.188Z,20.15
2019-01-13T10:06:17.007Z,20.15
2019-01-13T10:07:20.749Z,20.13
2019-01-13T10:08:24.383Z,20.12
2019-01-13T10:09:27.894Z,20.12
2019-01-13T10:10:31.606Z,20.08
2019-01-13T10:11:35.152Z,20.10
2019-01-13T10:12:38.977Z,20.11
2019-01-13T10:13:42.700Z,20.08
2019-01-13T10:14:46.469Z,20.10
2019-01-13T10:15:50.265Z,20.08
2019-01-13T10:16:53.963Z,20.08
2019-01-13T10:17:57.651Z,20.10
2019-01-13T10:19:01.274Z,20.08
2019-01-13T10:20:07.854Z,20.07
2019-01-13T10:21:11.617Z,20.07
2019-01-13T10:22:15.360Z,20.08
2019-01-13T10:23:19.015Z,20.10
2019-01-13T10:24:22.613Z,20.07
2019-01-13T10:25:26.233Z,20.08
2019-01-13T10:26:29.792Z,20.05
2019-01-13T10:27:33.324Z,20.06
2019-01-13T10:28:36.946Z,20.03
2019-01-13T10:29:40.483Z,20.03
2019-01-13T10:30:44.097Z,20.02
2019-01-13T10:31:47.657Z,20.02
2019-01-13T10:32:54.479Z,20.02
2019-01-13T10:33:56.526Z,20.04
2019-01-13T10:35:00.038Z,20.07
2019-01-13T10:36:03.650Z,20.07
2019-01-13T10:37:07.278Z,20.07
2019-01-13T10:38:10.760Z,20.10
2019-01-13T10:39:14.276Z,20.11
2019-01-13T10:40:28.181Z,20.12
2019-01-13T10:41:31.813Z,20.12
2019-01-13T10:42:35.422Z,20.09
2019-01-13T10:43:38.923Z,20.03
2019-01-13T10:44:42.431Z,19.96
2019-01-13T10:45:45.985Z,19.86
2019-01-13T10:46:49.482Z,19.79
2019-01-13T10:47:53.091Z,19.68
2019-01-13T10:48:56.838Z,19.58
2019-01-13T10:50:00.503Z,19.50
2019-01-13T10:51:04.292Z,19.40
2019-01-13T10:52:07.936Z,19.29
2019-01-13T10:53:11.488Z,19.22
2019-01-13T10:54:15.030Z,19.15
2019-01-13T10:55:18.801Z,19.08
2019-01-13T10:56:22.337Z,19.03
2019-01-13T10:57:25.845Z,18.98
2019-01-13T10:58:29.357Z,18.95
2019-01-13T10:59:32.835Z,18.92
2019-01-13T11:00:36.641Z,18.89
2019-01-13T11:01:40.203Z,18.89
2019-01-13T11:02:43.738Z,18.86
2019-01-13T11:03:47.333Z,18.83
2019-01-13T11:04:50.828Z,18.83
2019-01-13T11:05:54.414Z,18.85
2019-01-13T11:06:57.899Z,18.84
2019-01-13T11:08:01.633Z,18.82
2019-01-13T11:09:10.993Z,18.85
2019-01-13T11:10:16.670Z,18.83
2019-01-13T11:11:20.360Z,18.81
2019-01-13T11:12:23.942Z,18.76
2019-01-13T11:13:27.585Z,18.73
2019-01-13T11:14:31.078Z,18.72
2019-01-13T11:15:34.813Z,18.68
2019-01-13T11:16:40.110Z,18.67
2019-01-13T11:17:43.893Z,18.66
2019-01-13T11:18:47.546Z,18.65
2019-01-13T11:19:51.400Z,18.65
2019-01-13T11:20:55.099Z,18.65
2019-01-13T11:21:59.541Z,18.65
2019-01-13T11:23:03.865Z,18.68
2019-01-13T11:24:07.528Z,18.69
2019-01-13T11:25:11.760Z,18.73
2019-01-13T11:26:15.464Z,18.79
2019-01-13T11:27:19.095Z,18.84
2019-01-13T11:28:22.777Z,18.91
2019-01-13T11:29:32.552Z,18.97
2019-01-13T11:30:31.738Z,19.02
2019-01-13T11:31:35.498Z,19.13
2019-01-13T11:32:39.096Z,19.17
2019-01-13T11:33:42.777Z,19.23
2019-01-13T11:34:46.576Z,19.30
2019-01-13T11:35:50.462Z,19.35
2019-01-13T11:36:54.100Z,19.45
2019-01-13T11:37:57.968Z,19.48
2019-01-13T11:39:01.453Z,19.54
2019-01-13T11:40:08.010Z,19.52
2019-01-13T11:41:11.796Z,19.58
2019-01-13T11:42:15.354Z,19.61
2019-01-13T11:43:22.177Z,19.61
2019-01-13T11:44:26.060Z,19.63
2019-01-13T11:45:29.666Z,19.67
2019-01-13T11:46:33.175Z,19.70
2019-01-13T11:47:36.682Z,19.72
2019-01-13T11:48:40.210Z,19.76
2019-01-13T11:49:44.199Z,19.77
2019-01-13T11:50:47.769Z,19.82
2019-01-13T11:51:51.522Z,19.81
2019-01-13T11:52:55.158Z,19.83
2019-01-13T11:53:59.045Z,19.84
2019-01-13T11:55:03.160Z,19.86
2019-01-13T11:56:06.862Z,19.86
2019-01-13T11:57:19.353Z,19.87
2019-01-13T11:58:23.321Z,19.84
2019-01-13T11:59:28.053Z,19.84
2019-01-13T12:00:37.235Z,19.82
2019-01-13T12:01:45.983Z,19.82
2019-01-13T12:02:49.799Z,19.81
2019-01-13T12:03:54.016Z,19.82
2019-01-13T12:04:57.692Z,19.81
2019-01-13T12:06:01.632Z,19.81
2019-01-13T12:07:05.570Z,19.84
2019-01-13T12:08:09.360Z,19.85
2019-01-13T12:09:12.939Z,19.87
2019-01-13T12:10:19.097Z,19.88
2019-01-13T12:11:22.713Z,19.88
2019-01-13T12:12:26.484Z,19.88
2019-01-13T12:13:30.121Z,19.86
2019-01-13T12:14:33.652Z,19.85
2019-01-13T12:15:37.448Z,19.83
2019-01-13T12:16:41.022Z,19.84
2019-01-13T12:17:44.692Z,19.81
2019-01-13T12:18:48.379Z,19.81
2019-01-13T12:19:52.122Z,19.78
2019-01-13T12:20:57.796Z,19.76
2019-01-13T12:22:01.311Z,19.74
2019-01-13T12:23:05.234Z,19.73
2019-01-13T12:24:08.735Z,19.73
2019-01-13T12:25:14.905Z,19.69
2019-01-13T12:26:18.478Z,19.68
2019-01-13T12:27:21.978Z,19.68
2019-01-13T12:28:25.494Z,19.64
2019-01-13T12:29:29.040Z,19.64
2019-01-13T12:30:33.006Z,19.61
2019-01-13T12:31:36.579Z,19.61
2019-01-13T12:32:40.141Z,19.62
2019-01-13T12:33:44.591Z,19.57
2019-01-13T12:34:48.468Z,19.54
2019-01-13T12:35:52.218Z,19.51
2019-01-13T12:36:56.126Z,19.47
2019-01-13T12:38:00.042Z,19.43
2019-01-13T12:39:06.198Z,19.42
2019-01-13T12:40:13.006Z,19.39
2019-01-13T12:41:16.786Z,19.36
2019-01-13T12:42:20.607Z,19.35
2019-01-13T12:43:24.049Z,19.34
2019-01-13T12:44:27.560Z,19.33
2019-01-13T12:45:31.143Z,19.32
2019-01-13T12:46:34.701Z,19.31
2019-01-13T12:47:38.231Z,19.30
2019-01-13T12:48:41.794Z,19.30
2019-01-13T12:49:45.278Z,19.29
2019-01-13T12:50:48.780Z,19.28
2019-01-13T12:51:52.405Z,19.28
2019-01-13T12:52:56.148Z,19.27
2019-01-13T12:53:59.744Z,19.27
2019-01-13T12:55:03.965Z,19.25
2019-01-13T12:56:07.562Z,19.23
2019-01-13T12:57:11.408Z,19.22
2019-01-13T12:58:15.118Z,19.20
2019-01-13T12:59:18.701Z,19.17
2019-01-13T13:00:24.236Z,19.19
2019-01-13T13:01:27.888Z,19.20
2019-01-13T13:02:31.662Z,19.20
2019-01-13T13:03:35.172Z,19.21
2019-01-13T13:04:38.701Z,19.22
2019-01-13T13:05:42.248Z,19.23
2019-01-13T13:06:45.967Z,19.24
2019-01-13T13:07:49.556Z,19.25
2019-01-13T13:08:53.066Z,19.24
2019-01-13T13:09:59.227Z,19.24
2019-01-13T13:11:04.428Z,19.24
2019-01-13T13:12:09.749Z,19.21
2019-01-13T13:13:16.309Z,19.23
2019-01-13T13:14:21.882Z,19.21
2019-01-13T13:15:26.381Z,19.20
2019-01-13T13:16:33.894Z,19.17
2019-01-13T13:17:38.261Z,19.16
2019-01-13T13:18:41.953Z,19.15
2019-01-13T13:19:45.800Z,19.13
2019-01-13T13:20:49.288Z,19.10
2019-01-13T13:21:52.957Z,19.10
2019-01-13T13:22:56.594Z,19.09
2019-01-13T13:24:00.545Z,19.08
2019-01-13T13:25:05.139Z,19.08
2019-01-13T13:26:08.969Z,19.09
2019-01-13T13:27:12.543Z,19.10
2019-01-13T13:28:16.512Z,19.11
2019-01-13T13:29:20.089Z,19.10
2019-01-13T13:30:25.646Z,19.11
2019-01-13T13:31:31.160Z,19.09
2019-01-13T13:32:34.954Z,19.10
2019-01-13T13:33:39.091Z,19.08
2019-01-13T13:34:42.885Z,19.10
2019-01-13T13:35:46.648Z,19.14
2019-01-13T13:36:50.447Z,19.09
2019-01-13T13:37:54.175Z,19.10
2019-01-13T13:38:58.655Z,19.09
2019-01-13T13:40:02.330Z,19.08
2019-01-13T13:41:06.183Z,19.06
2019-01-13T13:42:09.975Z,19.05
2019-01-13T13:43:13.810Z,19.03